createdAt,value
2022-11-19T00:01:10.951Z,3.42
2022-11-19T00:03:38.766Z,3.42
2022-11-19T00:06:08.725Z,3.41
2022-11-19T00:08:35.680Z,3.42
2022-11-19T00:11:10.449Z,3.42
2022-11-19T00:13:38.352Z,3.40
2022-11-19T00:16:13.277Z,3.41
2022-11-19T00:18:40.390Z,3.41
2022-11-19T00:21:09.098Z,3.43
2022-11-19T00:23:36.290Z,3.47
2022-11-19T00:26:07.364Z,3.49
2022-11-19T00:28:34.160Z,3.50
2022-11-19T00:31:09.141Z,3.48
2022-11-19T00:33:36.374Z,3.49
2022-11-19T00:36:04.035Z,3.52
2022-11-19T00:38:31.313Z,3.53
2022-11-19T00:40:57.962Z,3.53
2022-11-19T00:43:43.506Z,3.53
2022-11-19T00:46:10.398Z,3.51
2022-11-19T00:48:38.117Z,3.56
2022-11-19T00:51:05.565Z,3.59
2022-11-19T00:53:32.076Z,3.66
2022-11-19T00:56:04.233Z,3.67
2022-11-19T00:58:31.277Z,3.67
2022-11-19T01:00:57.766Z,3.66
2022-11-19T01:03:25.086Z,3.66
2022-11-19T01:05:51.712Z,3.66
2022-11-19T01:08:18.649Z,3.73
2022-11-19T01:10:45.266Z,3.73
2022-11-19T01:13:31.114Z,3.68
2022-11-19T01:15:57.555Z,3.68
2022-11-19T01:18:24.053Z,3.68
2022-11-19T01:20:50.424Z,3.76
2022-11-19T01:23:16.823Z,3.76
2022-11-19T01:25:43.253Z,3.75
2022-11-19T01:28:09.716Z,3.74
2022-11-19T01:30:40.712Z,3.71
2022-11-19T01:33:07.876Z,3.76
2022-11-19T01:35:34.723Z,3.83
2022-11-19T01:38:02.182Z,3.84
2022-11-19T01:40:29.029Z,3.84
2022-11-19T01:42:55.511Z,3.83
2022-11-19T01:45:33.789Z,3.87
2022-11-19T01:48:04.871Z,3.92
2022-11-19T01:50:33.977Z,4.00
2022-11-19T01:53:01.917Z,4.03
2022-11-19T01:55:29.985Z,4.03
2022-11-19T01:57:59.892Z,4.02
2022-11-19T02:00:26.962Z,4.07
2022-11-19T02:02:53.951Z,4.08
2022-11-19T02:05:20.911Z,4.10
2022-11-19T02:07:54.245Z,4.12
2022-11-19T02:10:29.486Z,4.17
2022-11-19T02:13:29.806Z,4.20
2022-11-19T02:16:16.781Z,4.21
2022-11-19T02:19:06.104Z,4.25
2022-11-19T02:21:52.649Z,4.26
2022-11-19T02:24:44.686Z,4.31
2022-11-19T02:27:36.060Z,4.30
2022-11-19T02:30:10.053Z,4.33
2022-11-19T02:32:49.283Z,4.33
2022-11-19T02:35:26.768Z,4.35
2022-11-19T02:38:12.941Z,4.38
2022-11-19T02:40:48.426Z,4.43
2022-11-19T02:43:38.710Z,4.43
2022-11-19T02:46:12.360Z,4.42
2022-11-19T02:48:44.476Z,4.44
2022-11-19T02:51:12.005Z,4.46
2022-11-19T02:53:38.414Z,4.46
2022-11-19T02:56:34.446Z,4.47
2022-11-19T02:59:39.513Z,4.49
2022-11-19T03:02:26.421Z,4.46
2022-11-19T03:04:53.352Z,4.48
2022-11-19T03:07:21.407Z,4.49
2022-11-19T03:09:56.485Z,4.54
2022-11-19T03:12:49.666Z,4.57
2022-11-19T03:15:43.748Z,4.57
2022-11-19T03:18:16.132Z,4.60
2022-11-19T03:20:50.881Z,4.57
2022-11-19T03:23:29.265Z,4.56
2022-11-19T03:26:01.351Z,4.56
2022-11-19T03:28:34.399Z,4.54
2022-11-19T03:31:02.237Z,4.49
2022-11-19T03:33:41.080Z,4.43
2022-11-19T03:36:12.745Z,4.45
2022-11-19T03:38:45.413Z,4.40
2022-11-19T03:41:13.773Z,4.39
2022-11-19T03:43:44.566Z,4.31
2022-11-19T03:46:16.596Z,4.25
2022-11-19T03:48:47.910Z,4.26
2022-11-19T03:51:40.371Z,4.15
2022-11-19T03:54:07.735Z,4.03
2022-11-19T03:56:38.253Z,4.01
2022-11-19T03:59:08.356Z,3.97
2022-11-19T04:01:36.555Z,3.93
2022-11-19T04:04:21.838Z,3.87
2022-11-19T04:06:48.228Z,3.84
2022-11-19T04:09:14.651Z,3.77
2022-11-19T04:11:41.085Z,3.67
2022-11-19T04:14:07.520Z,3.69
2022-11-19T04:16:33.887Z,3.57
2022-11-19T04:19:00.285Z,3.53
2022-11-19T04:21:26.716Z,3.55
2022-11-19T04:23:53.123Z,3.48
2022-11-19T04:26:19.578Z,3.49
2022-11-19T04:28:45.992Z,3.49
2022-11-19T04:31:16.520Z,3.43
2022-11-19T04:33:44.354Z,3.41
2022-11-19T04:36:10.815Z,3.39
2022-11-19T04:38:37.225Z,3.34
2022-11-19T04:41:04.262Z,3.38
2022-11-19T04:43:30.651Z,3.36
2022-11-19T04:45:57.038Z,3.31
2022-11-19T04:48:23.454Z,3.28
2022-11-19T04:50:49.827Z,3.21
2022-11-19T04:53:16.264Z,3.24
2022-11-19T04:55:42.681Z,3.24
2022-11-19T04:58:09.213Z,3.26
2022-11-19T05:00:35.626Z,3.28
2022-11-19T05:03:02.050Z,3.31
2022-11-19T05:05:28.464Z,3.34
2022-11-19T05:07:55.025Z,3.30
2022-11-19T05:10:21.456Z,3.31
2022-11-19T05:12:47.843Z,3.31
2022-11-19T05:15:14.288Z,3.30
2022-11-19T05:17:40.681Z,3.27
2022-11-19T05:20:08.153Z,3.33
2022-11-19T05:22:34.848Z,3.32
2022-11-19T05:25:01.239Z,3.38
2022-11-19T05:27:27.644Z,3.38
2022-11-19T05:29:54.052Z,3.41
2022-11-19T05:32:20.436Z,3.37
2022-11-19T05:34:46.897Z,3.35
2022-11-19T05:37:13.281Z,3.35
2022-11-19T05:39:39.699Z,3.28
2022-11-19T05:42:06.134Z,3.26
2022-11-19T05:44:32.520Z,3.32
2022-11-19T05:46:59.750Z,3.33
2022-11-19T05:49:26.301Z,3.34
2022-11-19T05:51:52.701Z,3.36
2022-11-19T05:54:19.124Z,3.35
2022-11-19T05:56:45.605Z,3.35
2022-11-19T05:59:12.061Z,3.37
2022-11-19T06:01:38.432Z,3.35
2022-11-19T06:04:04.991Z,3.32
2022-11-19T06:06:31.413Z,3.20
2022-11-19T06:08:57.812Z,3.15
2022-11-19T06:11:42.793Z,3.10
2022-11-19T06:14:09.190Z,3.07
2022-11-19T06:16:35.572Z,3.08
2022-11-19T06:19:01.987Z,3.02
2022-11-19T06:21:28.394Z,3.01
2022-11-19T06:23:54.801Z,2.95
2022-11-19T06:26:26.135Z,2.83
2022-11-19T06:28:53.496Z,2.80
2022-11-19T06:31:20.460Z,2.81
2022-11-19T06:33:47.184Z,2.77
2022-11-19T06:36:13.868Z,2.70
2022-11-19T06:38:40.739Z,2.65
2022-11-19T06:41:07.251Z,2.62
2022-11-19T06:43:33.754Z,2.62
2022-11-19T06:46:00.185Z,2.55
2022-11-19T06:48:26.652Z,2.51
2022-11-19T06:50:53.160Z,2.49
2022-11-19T06:53:19.554Z,2.42
2022-11-19T06:55:45.965Z,2.36
2022-11-19T06:58:13.341Z,2.36
2022-11-19T07:00:39.949Z,2.36
2022-11-19T07:03:06.392Z,2.36
2022-11-19T07:05:32.823Z,2.36
2022-11-19T07:08:03.001Z,2.31
2022-11-19T07:10:30.211Z,2.30
2022-11-19T07:12:56.616Z,2.31
2022-11-19T07:15:23.008Z,2.31
2022-11-19T07:17:49.397Z,2.34
2022-11-19T07:20:16.640Z,2.33
2022-11-19T07:22:43.072Z,2.33
2022-11-19T07:25:12.805Z,2.35
2022-11-19T07:27:40.079Z,2.48
2022-11-19T07:30:07.609Z,2.52
2022-11-19T07:32:34.348Z,2.56
2022-11-19T07:35:00.784Z,2.59
2022-11-19T07:37:27.155Z,2.61
2022-11-19T07:39:53.644Z,2.61
2022-11-19T07:42:38.713Z,2.63
2022-11-19T07:45:09.101Z,2.56
2022-11-19T07:47:35.885Z,2.55
2022-11-19T07:50:03.913Z,2.58
2022-11-19T07:52:30.821Z,2.56
2022-11-19T07:54:57.426Z,2.63
2022-11-19T07:57:29.876Z,2.63
2022-11-19T07:59:56.763Z,2.67
2022-11-19T08:02:23.336Z,2.72
2022-11-19T08:04:49.739Z,2.79
2022-11-19T08:07:16.183Z,2.87
2022-11-19T08:09:42.710Z,2.99
2022-11-19T08:12:09.210Z,2.99
2022-11-19T08:14:35.662Z,3.10
2022-11-19T08:17:20.529Z,3.22
2022-11-19T08:19:46.962Z,3.28
2022-11-19T08:22:13.539Z,3.36
2022-11-19T08:24:39.941Z,3.41
2022-11-19T08:27:06.344Z,3.50
2022-11-19T08:29:32.779Z,3.61
2022-11-19T08:31:59.538Z,3.64
2022-11-19T08:34:26.222Z,3.69
2022-11-19T08:36:52.697Z,3.71
2022-11-19T08:39:19.109Z,3.77
2022-11-19T08:42:03.875Z,3.88
2022-11-19T08:44:30.264Z,4.07
2022-11-19T08:46:56.646Z,4.27
2022-11-19T08:49:23.037Z,4.42
2022-11-19T08:51:49.494Z,4.60
2022-11-19T08:54:16.193Z,4.71
2022-11-19T08:56:42.581Z,4.80
2022-11-19T08:59:09.023Z,4.83
2022-11-19T09:01:35.448Z,4.85
2022-11-19T09:04:01.848Z,4.93
2022-11-19T09:06:28.315Z,5.00
2022-11-19T09:08:54.742Z,5.02
2022-11-19T09:11:22.311Z,4.97
2022-11-19T09:13:49.097Z,5.02
2022-11-19T09:16:16.308Z,4.98
2022-11-19T09:18:42.915Z,4.88
2022-11-19T09:21:12.127Z,4.70
2022-11-19T09:23:39.589Z,4.60
2022-11-19T09:26:08.792Z,4.75
2022-11-19T09:28:35.995Z,4.90
2022-11-19T09:31:08.578Z,5.14
2022-11-19T09:33:38.169Z,5.11
2022-11-19T09:36:05.343Z,5.26
2022-11-19T09:38:31.921Z,5.38
2022-11-19T09:41:30.569Z,5.32
2022-11-19T09:43:56.896Z,5.18
2022-11-19T09:46:54.607Z,5.03
2022-11-19T09:49:36.543Z,5.07
2022-11-19T09:52:12.116Z,5.23
2022-11-19T09:54:47.048Z,5.21
2022-11-19T09:57:19.257Z,5.08
2022-11-19T09:59:47.786Z,4.99
2022-11-19T10:02:19.680Z,4.98
2022-11-19T10:04:48.511Z,5.07
2022-11-19T10:07:17.988Z,5.01
2022-11-19T10:10:21.718Z,5.00
2022-11-19T10:13:14.833Z,5.03
2022-11-19T10:15:53.001Z,5.14
2022-11-19T10:18:39.947Z,5.30
2022-11-19T10:21:15.329Z,5.43
2022-11-19T10:24:06.196Z,5.70
2022-11-19T10:26:35.629Z,5.68
2022-11-19T10:29:10.098Z,5.75
2022-11-19T10:31:39.624Z,5.99
2022-11-19T10:34:28.063Z,6.04
2022-11-19T10:36:59.750Z,5.89
2022-11-19T10:39:41.685Z,5.88
2022-11-19T10:42:40.111Z,5.98
2022-11-19T10:45:16.014Z,6.07
2022-11-19T10:48:04.672Z,5.98
2022-11-19T10:50:35.427Z,5.94
2022-11-19T10:53:36.185Z,5.93
2022-11-19T10:56:12.523Z,5.90
2022-11-19T10:58:57.755Z,5.99
2022-11-19T11:01:29.684Z,6.02
2022-11-19T11:04:11.318Z,6.00
2022-11-19T11:06:53.980Z,5.79
2022-11-19T11:09:37.333Z,5.81
2022-11-19T11:12:35.793Z,5.77
2022-11-19T11:15:21.947Z,5.90
2022-11-19T11:18:10.151Z,5.97
2022-11-19T11:20:59.875Z,5.89
2022-11-19T11:23:29.476Z,5.97
2022-11-19T11:26:17.606Z,5.97
2022-11-19T11:29:05.657Z,6.07
2022-11-19T11:31:37.717Z,6.07
2022-11-19T11:34:07.274Z,6.26
2022-11-19T11:36:36.316Z,6.30
2022-11-19T11:39:05.203Z,6.27
2022-11-19T11:42:05.447Z,6.18
2022-11-19T11:44:32.370Z,5.87
2022-11-19T11:47:14.246Z,5.95
2022-11-19T11:49:43.656Z,6.02
2022-11-19T11:52:22.975Z,6.12
2022-11-19T11:54:56.430Z,6.17
2022-11-19T11:57:32.948Z,6.03
2022-11-19T12:00:01.335Z,5.99
2022-11-19T12:02:31.169Z,5.80
2022-11-19T12:05:21.884Z,5.81
2022-11-19T12:07:51.312Z,5.83
2022-11-19T12:10:47.999Z,5.87
2022-11-19T12:13:20.566Z,5.93
2022-11-19T12:16:08.803Z,6.04
2022-11-19T12:18:53.614Z,6.17
2022-11-19T12:21:57.641Z,6.37
2022-11-19T12:24:31.009Z,6.71
2022-11-19T12:27:31.411Z,6.90
2022-11-19T12:30:06.063Z,6.99
2022-11-19T12:33:09.377Z,7.03
2022-11-19T12:35:43.425Z,6.67
2022-11-19T12:38:25.157Z,6.46
2022-11-19T12:41:13.319Z,6.47
2022-11-19T12:43:59.354Z,6.42
2022-11-19T12:46:33.958Z,6.53
2022-11-19T12:49:03.368Z,6.54
2022-11-19T12:51:58.856Z,6.47
2022-11-19T12:54:53.872Z,6.55
2022-11-19T12:57:41.914Z,6.68
2022-11-19T13:00:20.935Z,6.71
2022-11-19T13:02:50.322Z,6.42
2022-11-19T13:05:22.147Z,6.78
2022-11-19T13:07:56.661Z,6.98
2022-11-19T13:10:28.614Z,7.18
2022-11-19T13:12:58.067Z,7.06
2022-11-19T13:15:32.474Z,7.01
2022-11-19T13:18:03.410Z,6.83
2022-11-19T13:20:48.607Z,6.71
2022-11-19T13:23:25.321Z,6.71
2022-11-19T13:26:10.517Z,6.64
2022-11-19T13:28:47.485Z,6.93
2022-11-19T13:31:22.378Z,7.18
2022-11-19T13:34:18.651Z,7.43
2022-11-19T13:37:06.431Z,7.68
2022-11-19T13:39:36.941Z,8.09
2022-11-19T13:42:24.345Z,8.25
2022-11-19T13:44:51.704Z,7.84
2022-11-19T13:47:28.882Z,7.61
2022-11-19T13:50:02.822Z,7.27
2022-11-19T13:52:38.484Z,7.00
2022-11-19T13:55:21.489Z,6.63
2022-11-19T13:57:48.543Z,6.53
2022-11-19T14:00:27.618Z,6.64
2022-11-19T14:03:15.582Z,6.81
2022-11-19T14:06:32.854Z,7.05
2022-11-19T14:09:17.410Z,7.07
2022-11-19T14:12:05.717Z,8.03
2022-11-19T14:15:00.063Z,8.56
2022-11-19T14:17:44.985Z,8.05
2022-11-19T14:20:50.146Z,7.74
2022-11-19T14:24:09.090Z,7.39
2022-11-19T14:26:41.488Z,7.00
2022-11-19T14:29:20.113Z,6.78
2022-11-19T14:32:08.074Z,6.49
2022-11-19T14:34:43.733Z,6.34
2022-11-19T14:37:20.381Z,6.23
2022-11-19T14:39:55.836Z,6.19
2022-11-19T14:42:22.913Z,6.31
2022-11-19T14:45:01.717Z,6.31
2022-11-19T14:47:32.991Z,6.25
2022-11-19T14:50:02.271Z,6.18
2022-11-19T14:52:35.953Z,6.25
2022-11-19T14:55:27.716Z,6.13
2022-11-19T14:58:03.679Z,6.08
2022-11-19T15:00:31.901Z,6.01
2022-11-19T15:03:00.543Z,5.90
2022-11-19T15:05:33.100Z,5.82
2022-11-19T15:08:18.004Z,5.70
2022-11-19T15:11:12.317Z,5.68
2022-11-19T15:13:41.308Z,5.53
2022-11-19T15:16:14.774Z,5.46
2022-11-19T15:18:51.423Z,5.47
2022-11-19T15:21:32.742Z,5.48
2022-11-19T15:24:02.112Z,5.44
2022-11-19T15:27:00.833Z,5.38
2022-11-19T15:29:52.109Z,5.18
2022-11-19T15:32:18.454Z,4.97
2022-11-19T15:35:11.820Z,4.91
2022-11-19T15:37:54.888Z,4.80
2022-11-19T15:40:28.860Z,4.72
2022-11-19T15:43:04.397Z,4.71
2022-11-19T15:45:40.465Z,4.70
2022-11-19T15:48:15.950Z,4.64
2022-11-19T15:50:43.973Z,4.55
2022-11-19T15:53:19.874Z,4.44
2022-11-19T15:56:07.746Z,4.37
2022-11-19T15:58:45.118Z,4.34
2022-11-19T16:01:21.984Z,4.28
2022-11-19T16:03:51.392Z,4.21
2022-11-19T16:06:22.436Z,4.09
2022-11-19T16:08:54.264Z,4.09
2022-11-19T16:11:42.204Z,4.07
2022-11-19T16:14:53.334Z,3.96
2022-11-19T16:17:43.610Z,3.85
2022-11-19T16:20:10.403Z,3.82
2022-11-19T16:22:45.668Z,3.77
2022-11-19T16:25:14.758Z,3.70
2022-11-19T16:27:44.836Z,3.57
2022-11-19T16:30:20.671Z,3.53
2022-11-19T16:32:48.266Z,3.42
2022-11-19T16:35:24.506Z,3.38
2022-11-19T16:37:53.238Z,3.35
2022-11-19T16:40:20.661Z,3.24
2022-11-19T16:42:55.689Z,3.19
2022-11-19T16:45:27.796Z,3.17
2022-11-19T16:48:02.317Z,3.22
2022-11-19T16:50:29.489Z,3.19
2022-11-19T16:52:56.176Z,3.21
2022-11-19T16:55:22.510Z,3.21
2022-11-19T16:57:51.781Z,3.25
2022-11-19T17:00:21.435Z,3.13
2022-11-19T17:02:50.526Z,3.13
2022-11-19T17:05:20.458Z,3.09
2022-11-19T17:07:50.589Z,3.07
2022-11-19T17:10:22.949Z,3.09
2022-11-19T17:12:55.350Z,3.10
2022-11-19T17:15:40.143Z,3.13
2022-11-19T17:18:26.073Z,3.14
2022-11-19T17:21:24.202Z,3.08
2022-11-19T17:23:51.723Z,3.09
2022-11-19T17:26:22.236Z,3.11
2022-11-19T17:28:50.466Z,3.10
2022-11-19T17:31:26.281Z,3.17
2022-11-19T17:34:04.610Z,3.20
2022-11-19T17:36:31.027Z,3.21
2022-11-19T17:38:57.482Z,3.22
2022-11-19T17:41:45.635Z,3.20
2022-11-19T17:44:31.687Z,3.28
2022-11-19T17:46:58.866Z,3.31
2022-11-19T17:49:25.607Z,3.33
2022-11-19T17:51:53.033Z,3.32
2022-11-19T17:54:20.159Z,3.34
2022-11-19T17:56:47.058Z,3.34
2022-11-19T17:59:13.625Z,3.37
2022-11-19T18:01:40.404Z,3.40
2022-11-19T18:04:12.792Z,3.46
2022-11-19T18:06:40.055Z,3.51
2022-11-19T18:09:07.030Z,3.51
2022-11-19T18:11:34.471Z,3.45
2022-11-19T18:14:02.034Z,3.45
2022-11-19T18:16:37.481Z,3.52
2022-11-19T18:19:25.094Z,3.57
2022-11-19T18:21:53.473Z,3.57
2022-11-19T18:24:20.112Z,3.59
2022-11-19T18:26:46.649Z,3.61
2022-11-19T18:29:13.316Z,3.64
2022-11-19T18:31:45.376Z,3.64
2022-11-19T18:34:20.500Z,3.69
2022-11-19T18:36:47.169Z,3.74
2022-11-19T18:39:15.375Z,3.76
2022-11-19T18:41:43.163Z,3.78
2022-11-19T18:44:33.380Z,3.78
2022-11-19T18:47:10.583Z,3.76
2022-11-19T18:49:37.438Z,3.74
2022-11-19T18:52:09.151Z,3.77
2022-11-19T18:54:35.549Z,3.80
2022-11-19T18:57:02.321Z,3.76
2022-11-19T18:59:29.929Z,3.80
2022-11-19T19:01:56.488Z,3.83
2022-11-19T19:04:23.963Z,3.84
2022-11-19T19:06:50.911Z,3.89
2022-11-19T19:09:21.101Z,3.85
2022-11-19T19:12:13.385Z,3.89
2022-11-19T19:14:41.611Z,3.90
2022-11-19T19:17:08.190Z,3.93
2022-11-19T19:19:34.616Z,3.82
2022-11-19T19:22:01.667Z,3.83
2022-11-19T19:24:28.882Z,3.73
2022-11-19T19:26:55.247Z,3.70
2022-11-19T19:29:22.203Z,3.73
2022-11-19T19:31:48.831Z,3.70
2022-11-19T19:34:15.473Z,3.71
2022-11-19T19:36:46.432Z,3.73
2022-11-19T19:39:16.693Z,3.65
2022-11-19T19:41:43.138Z,3.58
2022-11-19T19:44:10.326Z,3.52
2022-11-19T19:46:36.943Z,3.48
2022-11-19T19:49:03.488Z,3.40
2022-11-19T19:51:31.148Z,3.34
2022-11-19T19:53:57.556Z,3.27
2022-11-19T19:56:27.007Z,3.13
2022-11-19T19:58:54.527Z,3.13
2022-11-19T20:01:26.229Z,3.07
2022-11-19T20:03:54.939Z,3.07
2022-11-19T20:06:23.585Z,3.10
2022-11-19T20:08:50.108Z,3.13
2022-11-19T20:11:21.538Z,3.06
2022-11-19T20:13:47.948Z,3.05
2022-11-19T20:16:18.485Z,3.01
2022-11-19T20:18:46.789Z,2.94
2022-11-19T20:21:15.769Z,2.91
2022-11-19T20:23:42.664Z,2.89
2022-11-19T20:26:15.873Z,2.89
2022-11-19T20:28:43.224Z,2.89
2022-11-19T20:31:19.087Z,2.85
2022-11-19T20:33:47.550Z,2.85
2022-11-19T20:36:16.902Z,2.81
2022-11-19T20:38:47.640Z,2.78
2022-11-19T20:41:34.679Z,2.73
2022-11-19T20:44:20.223Z,2.70
2022-11-19T20:46:53.113Z,2.63
2022-11-19T20:49:22.637Z,2.58
2022-11-19T20:51:49.913Z,2.51
2022-11-19T20:54:16.528Z,2.47
2022-11-19T20:56:43.038Z,2.48
2022-11-19T20:59:09.934Z,2.43
2022-11-19T21:01:37.096Z,2.45
2022-11-19T21:04:03.963Z,2.44
2022-11-19T21:06:31.089Z,2.38
2022-11-19T21:08:57.598Z,2.36
2022-11-19T21:11:24.416Z,2.31
2022-11-19T21:13:51.062Z,2.30
2022-11-19T21:16:22.790Z,2.24
2022-11-19T21:18:49.640Z,2.26
2022-11-19T21:21:17.883Z,2.28
2022-11-19T21:23:45.199Z,2.28
2022-11-19T21:26:17.315Z,2.31
2022-11-19T21:28:46.795Z,2.22
2022-11-19T21:31:17.744Z,2.17
2022-11-19T21:33:44.152Z,2.15
2022-11-19T21:36:11.487Z,2.06
2022-11-19T21:38:38.516Z,2.06
2022-11-19T21:41:05.796Z,2.06
2022-11-19T21:43:32.551Z,2.05
2022-11-19T21:45:59.080Z,2.10
2022-11-19T21:48:25.991Z,2.13
2022-11-19T21:50:52.903Z,2.16
2022-11-19T21:53:19.881Z,2.13
2022-11-19T21:55:47.214Z,2.13
2022-11-19T21:58:15.207Z,2.22
2022-11-19T22:00:42.602Z,2.32
2022-11-19T22:03:09.111Z,2.33
2022-11-19T22:05:35.543Z,2.34
2022-11-19T22:08:02.249Z,2.35
2022-11-19T22:10:29.797Z,2.31
2022-11-19T22:12:59.441Z,2.26
2022-11-19T22:15:26.608Z,2.25
2022-11-19T22:17:53.088Z,2.19
2022-11-19T22:20:19.770Z,2.07
2022-11-19T22:22:46.507Z,2.06
2022-11-19T22:25:13.782Z,2.05
2022-11-19T22:27:41.535Z,2.03
2022-11-19T22:30:09.936Z,1.98
2022-11-19T22:32:36.637Z,1.99
2022-11-19T22:35:03.164Z,2.01
2022-11-19T22:37:29.554Z,1.97
2022-11-19T22:39:56.016Z,1.84
2022-11-19T22:42:22.434Z,1.75
2022-11-19T22:44:48.811Z,1.72
2022-11-19T22:47:15.198Z,1.71
2022-11-19T22:49:41.593Z,1.69
2022-11-19T22:52:08.021Z,1.63
2022-11-19T22:54:40.175Z,1.61
2022-11-19T22:57:07.906Z,1.60
2022-11-19T22:59:34.292Z,1.56
2022-11-19T23:02:00.693Z,1.50
2022-11-19T23:04:28.828Z,1.45
2022-11-19T23:06:55.250Z,1.44
2022-11-19T23:09:21.811Z,1.44
2022-11-19T23:12:06.905Z,1.47
2022-11-19T23:14:33.341Z,1.44
2022-11-19T23:16:59.715Z,1.48
2022-11-19T23:19:26.145Z,1.52
2022-11-19T23:21:52.533Z,1.54
2022-11-19T23:24:20.284Z,1.60
2022-11-19T23:26:46.669Z,1.64
2022-11-19T23:29:13.084Z,1.68
2022-11-19T23:31:40.077Z,1.76
2022-11-19T23:34:07.083Z,1.80
2022-11-19T23:36:39.069Z,1.88
2022-11-19T23:39:08.045Z,1.91
2022-11-19T23:41:34.448Z,1.93
2022-11-19T23:44:01.649Z,1.89
2022-11-19T23:46:30.304Z,1.88
2022-11-19T23:48:58.439Z,1.78
2022-11-19T23:51:27.523Z,1.73
2022-11-19T23:53:54.433Z,1.73
2022-11-19T23:56:23.084Z,1.68
2022-11-19T23:58:49.986Z,1.61
